sensor_id;sensor_type;location;lat;lon;timestamp;P1;durP1;ratioP1;P2;durP2;ratioP2
17079;SDS011;8655;57.106;-2.088;2022-09-21T00:00:22;2.40;;;2.20;;
17079;SDS011;8655;57.106;-2.088;2022-09-21T00:02:49;2.05;;;1.85;;
17079;SDS011;8655;57.106;-2.088;2022-09-21T00:05:15;2.38;;;1.98;;
17079;SDS011;8655;57.106;-2.088;2022-09-21T00:07:41;2.05;;;1.83;;
17079;SDS011;8655;57.106;-2.088;2022-09-21T00:10:07;2.10;;;1.90;;
17079;SDS011;8655;57.106;-2.088;2022-09-21T00:12:34;2.13;;;1.92;;
17079;SDS011;8655;57.106;-2.088;2022-09-21T00:15:05;2.20;;;2.00;;
17079;SDS011;8655;57.106;-2.088;2022-09-21T00:17:32;2.13;;;1.93;;
17079;SDS011;8655;57.106;-2.088;2022-09-21T00:19:58;2.03;;;1.83;;
17079;SDS011;8655;57.106;-2.088;2022-09-21T00:22:26;1.88;;;1.77;;
17079;SDS011;8655;57.106;-2.088;2022-09-21T00:24:53;2.50;;;1.90;;
17079;SDS011;8655;57.106;-2.088;2022-09-21T00:27:20;2.60;;;1.80;;
17079;SDS011;8655;57.106;-2.088;2022-09-21T00:29:46;2.13;;;1.92;;
17079;SDS011;8655;57.106;-2.088;2022-09-21T00:32:12;2.15;;;1.95;;
17079;SDS011;8655;57.106;-2.088;2022-09-21T00:34:39;2.17;;;1.98;;
17079;SDS011;8655;57.106;-2.088;2022-09-21T00:37:06;2.55;;;1.70;;
17079;SDS011;8655;57.106;-2.088;2022-09-21T00:39:33;2.20;;;2.00;;
17079;SDS011;8655;57.106;-2.088;2022-09-21T00:41:59;1.73;;;1.63;;
17079;SDS011;8655;57.106;-2.088;2022-09-21T00:46:55;2.00;;;1.90;;
17079;SDS011;8655;57.106;-2.088;2022-09-21T00:49:22;2.10;;;1.90;;
17079;SDS011;8655;57.106;-2.088;2022-09-21T00:51:49;1.98;;;1.80;;
17079;SDS011;8655;57.106;-2.088;2022-09-21T00:54:19;2.10;;;1.90;;
17079;SDS011;8655;57.106;-2.088;2022-09-21T00:56:47;2.40;;;2.17;;
17079;SDS011;8655;57.106;-2.088;2022-09-21T00:59:13;1.92;;;1.83;;
17079;SDS011;8655;57.106;-2.088;2022-09-21T01:01:41;2.63;;;2.00;;
17079;SDS011;8655;57.106;-2.088;2022-09-21T01:04:07;2.10;;;1.75;;
17079;SDS011;8655;57.106;-2.088;2022-09-21T01:06:34;2.10;;;1.85;;
17079;SDS011;8655;57.106;-2.088;2022-09-21T01:09:02;2.17;;;1.98;;
17079;SDS011;8655;57.106;-2.088;2022-09-21T01:16:25;1.95;;;1.63;;
17079;SDS011;8655;57.106;-2.088;2022-09-21T01:21:26;1.90;;;1.80;;
17079;SDS011;8655;57.106;-2.088;2022-09-21T01:31:43;1.75;;;1.65;;
17079;SDS011;8655;57.106;-2.088;2022-09-21T01:36:57;1.95;;;1.85;;
17079;SDS011;8655;57.106;-2.088;2022-09-21T01:39:26;2.00;;;1.85;;
17079;SDS011;8655;57.106;-2.088;2022-09-21T01:41:53;2.05;;;1.80;;
17079;SDS011;8655;57.106;-2.088;2022-09-21T01:44:21;1.75;;;1.60;;
17079;SDS011;8655;57.106;-2.088;2022-09-21T01:46:48;1.80;;;1.70;;
17079;SDS011;8655;57.106;-2.088;2022-09-21T01:49:16;1.80;;;1.70;;
17079;SDS011;8655;57.106;-2.088;2022-09-21T01:51:44;2.03;;;1.80;;
17079;SDS011;8655;57.106;-2.088;2022-09-21T01:54:14;2.00;;;1.58;;
17079;SDS011;8655;57.106;-2.088;2022-09-21T01:56:45;1.70;;;1.60;;
17079;SDS011;8655;57.106;-2.088;2022-09-21T01:59:17;1.90;;;1.70;;
17079;SDS011;8655;57.106;-2.088;2022-09-21T02:01:48;2.00;;;1.65;;
17079;SDS011;8655;57.106;-2.088;2022-09-21T02:04:15;2.00;;;1.80;;
17079;SDS011;8655;57.106;-2.088;2022-09-21T02:06:42;2.00;;;1.80;;
17079;SDS011;8655;57.106;-2.088;2022-09-21T02:09:09;2.15;;;1.65;;
17079;SDS011;8655;57.106;-2.088;2022-09-21T02:11:36;1.77;;;1.67;;
17079;SDS011;8655;57.106;-2.088;2022-09-21T02:14:17;1.88;;;1.67;;
17079;SDS011;8655;57.106;-2.088;2022-09-21T02:22:37;1.70;;;1.60;;
17079;SDS011;8655;57.106;-2.088;2022-09-21T02:26:06;1.70;;;1.60;;
17079;SDS011;8655;57.106;-2.088;2022-09-21T02:30:29;1.70;;;1.60;;
17079;SDS011;8655;57.106;-2.088;2022-09-21T02:38:02;1.83;;;1.73;;
17079;SDS011;8655;57.106;-2.088;2022-09-21T02:41:14;1.75;;;1.63;;
17079;SDS011;8655;57.106;-2.088;2022-09-21T02:43:22;1.77;;;1.67;;
17079;SDS011;8655;57.106;-2.088;2022-09-21T02:45:53;1.70;;;1.60;;
17079;SDS011;8655;57.106;-2.088;2022-09-21T02:49:03;2.00;;;1.80;;
17079;SDS011;8655;57.106;-2.088;2022-09-21T02:51:12;1.63;;;1.52;;
17079;SDS011;8655;57.106;-2.088;2022-09-21T02:53:41;2.08;;;1.48;;
17079;SDS011;8655;57.106;-2.088;2022-09-21T02:56:08;1.98;;;1.70;;
17079;SDS011;8655;57.106;-2.088;2022-09-21T02:58:53;1.92;;;1.70;;
17079;SDS011;8655;57.106;-2.088;2022-09-21T03:01:21;1.58;;;1.48;;
17079;SDS011;8655;57.106;-2.088;2022-09-21T03:03:49;1.85;;;1.65;;
17079;SDS011;8655;57.106;-2.088;2022-09-21T03:06:16;1.60;;;1.50;;
17079;SDS011;8655;57.106;-2.088;2022-09-21T03:08:42;1.70;;;1.60;;
17079;SDS011;8655;57.106;-2.088;2022-09-21T03:11:08;1.90;;;1.80;;
17079;SDS011;8655;57.106;-2.088;2022-09-21T03:13:35;1.60;;;1.50;;
17079;SDS011;8655;57.106;-2.088;2022-09-21T03:16:04;1.73;;;1.63;;
17079;SDS011;8655;57.106;-2.088;2022-09-21T03:18:31;1.90;;;1.70;;
17079;SDS011;8655;57.106;-2.088;2022-09-21T03:20:57;1.60;;;1.50;;
17079;SDS011;8655;57.106;-2.088;2022-09-21T03:23:24;1.50;;;1.40;;
17079;SDS011;8655;57.106;-2.088;2022-09-21T03:25:50;1.80;;;1.70;;
17079;SDS011;8655;57.106;-2.088;2022-09-21T03:28:16;1.83;;;1.73;;
17079;SDS011;8655;57.106;-2.088;2022-09-21T03:30:42;2.03;;;1.83;;
17079;SDS011;8655;57.106;-2.088;2022-09-21T03:33:09;1.63;;;1.52;;
17079;SDS011;8655;57.106;-2.088;2022-09-21T03:35:36;1.70;;;1.60;;
17079;SDS011;8655;57.106;-2.088;2022-09-21T03:38:03;1.70;;;1.60;;
17079;SDS011;8655;57.106;-2.088;2022-09-21T03:40:29;1.70;;;1.60;;
17079;SDS011;8655;57.106;-2.088;2022-09-21T03:42:56;1.92;;;1.80;;
17079;SDS011;8655;57.106;-2.088;2022-09-21T03:45:22;1.67;;;1.58;;
17079;SDS011;8655;57.106;-2.088;2022-09-21T03:47:54;1.60;;;1.40;;
17079;SDS011;8655;57.106;-2.088;2022-09-21T03:50:21;1.73;;;1.63;;
17079;SDS011;8655;57.106;-2.088;2022-09-21T03:52:47;1.85;;;1.67;;
17079;SDS011;8655;57.106;-2.088;2022-09-21T03:55:13;1.80;;;1.58;;
17079;SDS011;8655;57.106;-2.088;2022-09-21T03:57:39;1.80;;;1.55;;
17079;SDS011;8655;57.106;-2.088;2022-09-21T04:00:06;1.40;;;1.30;;
17079;SDS011;8655;57.106;-2.088;2022-09-21T04:02:33;1.45;;;1.35;;
17079;SDS011;8655;57.106;-2.088;2022-09-21T04:04:59;1.52;;;1.42;;
17079;SDS011;8655;57.106;-2.088;2022-09-21T04:07:29;1.60;;;1.50;;
17079;SDS011;8655;57.106;-2.088;2022-09-21T04:09:56;2.08;;;1.33;;
17079;SDS011;8655;57.106;-2.088;2022-09-21T04:12:22;1.50;;;1.40;;
17079;SDS011;8655;57.106;-2.088;2022-09-21T04:14:48;1.48;;;1.38;;
17079;SDS011;8655;57.106;-2.088;2022-09-21T04:17:14;1.40;;;1.30;;
17079;SDS011;8655;57.106;-2.088;2022-09-21T04:19:40;1.88;;;1.77;;
17079;SDS011;8655;57.106;-2.088;2022-09-21T04:22:09;1.98;;;1.58;;
17079;SDS011;8655;57.106;-2.088;2022-09-21T04:24:36;1.92;;;1.40;;
17079;SDS011;8655;57.106;-2.088;2022-09-21T04:27:08;2.00;;;1.65;;
17079;SDS011;8655;57.106;-2.088;2022-09-21T04:29:34;1.50;;;1.40;;
17079;SDS011;8655;57.106;-2.088;2022-09-21T04:32:00;1.92;;;1.50;;
17079;SDS011;8655;57.106;-2.088;2022-09-21T04:34:26;1.40;;;1.30;;
17079;SDS011;8655;57.106;-2.088;2022-09-21T04:36:52;1.70;;;1.60;;
17079;SDS011;8655;57.106;-2.088;2022-09-21T04:39:18;1.60;;;1.50;;
17079;SDS011;8655;57.106;-2.088;2022-09-21T04:41:45;1.42;;;1.30;;
17079;SDS011;8655;57.106;-2.088;2022-09-21T04:44:11;1.10;;;1.10;;
17079;SDS011;8655;57.106;-2.088;2022-09-21T04:46:37;1.50;;;1.40;;
17079;SDS011;8655;57.106;-2.088;2022-09-21T04:49:03;1.75;;;1.65;;
17079;SDS011;8655;57.106;-2.088;2022-09-21T04:51:29;1.38;;;1.27;;
17079;SDS011;8655;57.106;-2.088;2022-09-21T04:53:55;1.60;;;1.50;;
17079;SDS011;8655;57.106;-2.088;2022-09-21T04:56:21;1.15;;;1.10;;
17079;SDS011;8655;57.106;-2.088;2022-09-21T04:58:47;1.40;;;1.30;;
17079;SDS011;8655;57.106;-2.088;2022-09-21T05:01:13;1.42;;;1.33;;
17079;SDS011;8655;57.106;-2.088;2022-09-21T05:03:39;1.40;;;1.30;;
17079;SDS011;8655;57.106;-2.088;2022-09-21T05:06:06;1.50;;;1.40;;
17079;SDS011;8655;57.106;-2.088;2022-09-21T05:08:33;1.50;;;1.40;;
17079;SDS011;8655;57.106;-2.088;2022-09-21T05:11:18;1.60;;;1.50;;
17079;SDS011;8655;57.106;-2.088;2022-09-21T05:13:45;1.50;;;1.40;;
17079;SDS011;8655;57.106;-2.088;2022-09-21T05:16:11;1.40;;;1.30;;
17079;SDS011;8655;57.106;-2.088;2022-09-21T05:18:37;1.35;;;1.25;;
17079;SDS011;8655;57.106;-2.088;2022-09-21T05:21:03;1.60;;;1.50;;
17079;SDS011;8655;57.106;-2.088;2022-09-21T05:23:30;1.98;;;1.45;;
17079;SDS011;8655;57.106;-2.088;2022-09-21T05:25:57;1.60;;;1.50;;
17079;SDS011;8655;57.106;-2.088;2022-09-21T05:28:23;1.60;;;1.50;;
17079;SDS011;8655;57.106;-2.088;2022-09-21T05:30:56;1.67;;;1.50;;
17079;SDS011;8655;57.106;-2.088;2022-09-21T05:33:22;1.48;;;1.38;;
17079;SDS011;8655;57.106;-2.088;2022-09-21T05:38:23;1.30;;;1.20;;
17079;SDS011;8655;57.106;-2.088;2022-09-21T05:40:49;1.42;;;1.33;;
17079;SDS011;8655;57.106;-2.088;2022-09-21T05:43:15;1.70;;;1.60;;
17079;SDS011;8655;57.106;-2.088;2022-09-21T05:45:45;1.52;;;1.42;;
17079;SDS011;8655;57.106;-2.088;2022-09-21T05:50:52;1.52;;;1.42;;
17079;SDS011;8655;57.106;-2.088;2022-09-21T05:58:19;1.50;;;1.40;;
17079;SDS011;8655;57.106;-2.088;2022-09-21T06:05:53;1.30;;;1.20;;
17079;SDS011;8655;57.106;-2.088;2022-09-21T06:08:19;1.38;;;1.27;;
17079;SDS011;8655;57.106;-2.088;2022-09-21T06:10:46;1.45;;;1.35;;
17079;SDS011;8655;57.106;-2.088;2022-09-21T06:13:12;1.48;;;1.27;;
17079;SDS011;8655;57.106;-2.088;2022-09-21T06:15:38;1.50;;;1.40;;
17079;SDS011;8655;57.106;-2.088;2022-09-21T06:18:05;1.30;;;1.20;;
17079;SDS011;8655;57.106;-2.088;2022-09-21T06:20:31;1.48;;;1.38;;
17079;SDS011;8655;57.106;-2.088;2022-09-21T06:23:05;1.25;;;1.15;;
17079;SDS011;8655;57.106;-2.088;2022-09-21T06:25:31;1.50;;;1.40;;
17079;SDS011;8655;57.106;-2.088;2022-09-21T06:28:15;1.42;;;1.33;;
17079;SDS011;8655;57.106;-2.088;2022-09-21T06:30:41;1.40;;;1.30;;
17079;SDS011;8655;57.106;-2.088;2022-09-21T06:33:08;1.30;;;1.20;;
17079;SDS011;8655;57.106;-2.088;2022-09-21T06:35:35;1.30;;;1.20;;
17079;SDS011;8655;57.106;-2.088;2022-09-21T06:38:05;1.35;;;1.25;;
17079;SDS011;8655;57.106;-2.088;2022-09-21T06:40:32;1.52;;;1.40;;
17079;SDS011;8655;57.106;-2.088;2022-09-21T06:42:59;1.42;;;1.33;;
17079;SDS011;8655;57.106;-2.088;2022-09-21T06:45:26;1.30;;;1.20;;
17079;SDS011;8655;57.106;-2.088;2022-09-21T06:47:53;1.33;;;1.23;;
17079;SDS011;8655;57.106;-2.088;2022-09-21T06:50:19;1.20;;;1.10;;
17079;SDS011;8655;57.106;-2.088;2022-09-21T06:52:45;1.05;;;1.05;;
17079;SDS011;8655;57.106;-2.088;2022-09-21T06:55:12;1.88;;;1.35;;
17079;SDS011;8655;57.106;-2.088;2022-09-21T06:57:38;1.00;;;1.00;;
17079;SDS011;8655;57.106;-2.088;2022-09-21T07:00:05;1.27;;;1.13;;
17079;SDS011;8655;57.106;-2.088;2022-09-21T07:02:33;1.40;;;1.30;;
17079;SDS011;8655;57.106;-2.088;2022-09-21T07:04:59;1.27;;;1.17;;
17079;SDS011;8655;57.106;-2.088;2022-09-21T07:07:25;1.40;;;1.30;;
17079;SDS011;8655;57.106;-2.088;2022-09-21T07:09:54;1.55;;;1.45;;
17079;SDS011;8655;57.106;-2.088;2022-09-21T07:12:20;1.92;;;1.30;;
17079;SDS011;8655;57.106;-2.088;2022-09-21T07:14:46;1.52;;;1.30;;
17079;SDS011;8655;57.106;-2.088;2022-09-21T07:17:11;1.30;;;1.20;;
17079;SDS011;8655;57.106;-2.088;2022-09-21T07:19:38;1.10;;;1.10;;
17079;SDS011;8655;57.106;-2.088;2022-09-21T07:22:04;1.43;;;1.30;;
17079;SDS011;8655;57.106;-2.088;2022-09-21T07:24:30;1.30;;;1.20;;
17079;SDS011;8655;57.106;-2.088;2022-09-21T07:26:56;1.33;;;1.23;;
17079;SDS011;8655;57.106;-2.088;2022-09-21T07:29:23;1.67;;;1.35;;
17079;SDS011;8655;57.106;-2.088;2022-09-21T07:31:48;1.48;;;1.27;;
17079;SDS011;8655;57.106;-2.088;2022-09-21T07:34:14;1.33;;;1.20;;
17079;SDS011;8655;57.106;-2.088;2022-09-21T07:36:40;1.50;;;1.40;;
17079;SDS011;8655;57.106;-2.088;2022-09-21T07:39:07;1.13;;;1.02;;
17079;SDS011;8655;57.106;-2.088;2022-09-21T07:41:34;1.30;;;1.20;;
17079;SDS011;8655;57.106;-2.088;2022-09-21T07:44:00;1.20;;;1.10;;
17079;SDS011;8655;57.106;-2.088;2022-09-21T07:46:26;1.58;;;1.48;;
17079;SDS011;8655;57.106;-2.088;2022-09-21T07:48:53;1.33;;;1.23;;
17079;SDS011;8655;57.106;-2.088;2022-09-21T07:51:19;1.30;;;1.20;;
17079;SDS011;8655;57.106;-2.088;2022-09-21T07:53:46;1.42;;;1.33;;
17079;SDS011;8655;57.106;-2.088;2022-09-21T07:56:13;1.35;;;1.25;;
17079;SDS011;8655;57.106;-2.088;2022-09-21T07:58:40;1.30;;;1.20;;
17079;SDS011;8655;57.106;-2.088;2022-09-21T08:01:24;1.65;;;1.55;;
17079;SDS011;8655;57.106;-2.088;2022-09-21T08:03:51;1.67;;;1.30;;
17079;SDS011;8655;57.106;-2.088;2022-09-21T08:06:19;1.75;;;1.35;;
17079;SDS011;8655;57.106;-2.088;2022-09-21T08:08:46;1.35;;;1.23;;
17079;SDS011;8655;57.106;-2.088;2022-09-21T08:11:12;1.40;;;1.30;;
17079;SDS011;8655;57.106;-2.088;2022-09-21T08:13:42;1.50;;;1.40;;
17079;SDS011;8655;57.106;-2.088;2022-09-21T08:16:08;1.52;;;1.42;;
17079;SDS011;8655;57.106;-2.088;2022-09-21T08:18:37;1.60;;;1.50;;
17079;SDS011;8655;57.106;-2.088;2022-09-21T08:21:04;1.27;;;1.20;;
17079;SDS011;8655;57.106;-2.088;2022-09-21T08:23:30;1.20;;;1.10;;
17079;SDS011;8655;57.106;-2.088;2022-09-21T08:25:59;1.25;;;1.15;;
17079;SDS011;8655;57.106;-2.088;2022-09-21T08:28:26;1.33;;;1.23;;
17079;SDS011;8655;57.106;-2.088;2022-09-21T08:30:53;1.60;;;1.50;;
17079;SDS011;8655;57.106;-2.088;2022-09-21T08:33:22;1.50;;;1.40;;
17079;SDS011;8655;57.106;-2.088;2022-09-21T08:35:54;1.50;;;1.40;;
17079;SDS011;8655;57.106;-2.088;2022-09-21T08:38:22;2.13;;;1.70;;
17079;SDS011;8655;57.106;-2.088;2022-09-21T08:40:48;1.50;;;1.40;;
17079;SDS011;8655;57.106;-2.088;2022-09-21T08:43:17;2.60;;;1.67;;
17079;SDS011;8655;57.106;-2.088;2022-09-21T08:45:43;1.40;;;1.30;;
17079;SDS011;8655;57.106;-2.088;2022-09-21T08:48:13;1.60;;;1.50;;
17079;SDS011;8655;57.106;-2.088;2022-09-21T08:50:55;1.65;;;1.55;;
17079;SDS011;8655;57.106;-2.088;2022-09-21T08:55:55;2.05;;;1.50;;
17079;SDS011;8655;57.106;-2.088;2022-09-21T08:58:24;1.55;;;1.45;;
17079;SDS011;8655;57.106;-2.088;2022-09-21T09:00:56;1.73;;;1.60;;
17079;SDS011;8655;57.106;-2.088;2022-09-21T09:12:11;1.80;;;1.70;;
17079;SDS011;8655;57.106;-2.088;2022-09-21T09:22:44;1.67;;;1.58;;
17079;SDS011;8655;57.106;-2.088;2022-09-21T09:25:25;1.98;;;1.60;;
17079;SDS011;8655;57.106;-2.088;2022-09-21T09:27:54;2.15;;;1.90;;
17079;SDS011;8655;57.106;-2.088;2022-09-21T09:30:25;2.20;;;2.00;;
17079;SDS011;8655;57.106;-2.088;2022-09-21T09:37:54;2.13;;;1.85;;
17079;SDS011;8655;57.106;-2.088;2022-09-21T09:43:25;1.98;;;1.77;;
17079;SDS011;8655;57.106;-2.088;2022-09-21T09:48:41;2.63;;;2.15;;
17079;SDS011;8655;57.106;-2.088;2022-09-21T09:51:10;2.17;;;1.98;;
17079;SDS011;8655;57.106;-2.088;2022-09-21T09:53:37;3.33;;;2.22;;
17079;SDS011;8655;57.106;-2.088;2022-09-21T09:56:03;2.20;;;2.00;;
17079;SDS011;8655;57.106;-2.088;2022-09-21T10:01:44;3.00;;;2.40;;
17079;SDS011;8655;57.106;-2.088;2022-09-21T10:04:12;3.40;;;2.20;;
17079;SDS011;8655;57.106;-2.088;2022-09-21T10:06:39;3.17;;;2.00;;
17079;SDS011;8655;57.106;-2.088;2022-09-21T10:09:25;3.28;;;2.53;;
17079;SDS011;8655;57.106;-2.088;2022-09-21T10:11:59;3.85;;;2.40;;
17079;SDS011;8655;57.106;-2.088;2022-09-21T10:14:53;2.58;;;2.33;;
17079;SDS011;8655;57.106;-2.088;2022-09-21T10:17:22;2.63;;;2.30;;
17079;SDS011;8655;57.106;-2.088;2022-09-21T10:19:49;4.03;;;2.75;;
17079;SDS011;8655;57.106;-2.088;2022-09-21T10:22:28;2.65;;;2.45;;
17079;SDS011;8655;57.106;-2.088;2022-09-21T10:24:57;2.60;;;2.40;;
17079;SDS011;8655;57.106;-2.088;2022-09-21T10:27:28;3.37;;;2.60;;
17079;SDS011;8655;57.106;-2.088;2022-09-21T10:29:58;2.97;;;2.50;;
17079;SDS011;8655;57.106;-2.088;2022-09-21T10:32:25;4.68;;;2.85;;
17079;SDS011;8655;57.106;-2.088;2022-09-21T10:35:28;3.20;;;2.67;;
17079;SDS011;8655;57.106;-2.088;2022-09-21T10:37:47;3.35;;;2.45;;
17079;SDS011;8655;57.106;-2.088;2022-09-21T10:42:50;2.65;;;2.42;;
17079;SDS011;8655;57.106;-2.088;2022-09-21T10:45:18;2.92;;;2.58;;
17079;SDS011;8655;57.106;-2.088;2022-09-21T10:52:49;3.88;;;2.70;;
17079;SDS011;8655;57.106;-2.088;2022-09-21T10:55:21;3.20;;;2.88;;
17079;SDS011;8655;57.106;-2.088;2022-09-21T10:57:49;5.05;;;3.15;;
17079;SDS011;8655;57.106;-2.088;2022-09-21T11:02:55;3.05;;;2.75;;
17079;SDS011;8655;57.106;-2.088;2022-09-21T11:05:32;2.87;;;2.50;;
17079;SDS011;8655;57.106;-2.088;2022-09-21T11:10:49;3.90;;;2.80;;
17079;SDS011;8655;57.106;-2.088;2022-09-21T11:13:49;4.38;;;3.17;;
17079;SDS011;8655;57.106;-2.088;2022-09-21T11:16:27;4.78;;;3.33;;
17079;SDS011;8655;57.106;-2.088;2022-09-21T11:21:59;6.70;;;3.05;;
17079;SDS011;8655;57.106;-2.088;2022-09-21T11:27:23;4.88;;;3.10;;
17079;SDS011;8655;57.106;-2.088;2022-09-21T11:43:34;4.05;;;3.08;;
17079;SDS011;8655;57.106;-2.088;2022-09-21T12:02:34;4.97;;;3.30;;
17079;SDS011;8655;57.106;-2.088;2022-09-21T12:05:23;5.10;;;3.33;;
17079;SDS011;8655;57.106;-2.088;2022-09-21T12:16:59;5.10;;;3.53;;
17079;SDS011;8655;57.106;-2.088;2022-09-21T12:22:28;3.95;;;3.35;;
17079;SDS011;8655;57.106;-2.088;2022-09-21T12:25:00;4.15;;;3.28;;
17079;SDS011;8655;57.106;-2.088;2022-09-21T12:27:31;4.68;;;3.53;;
17079;SDS011;8655;57.106;-2.088;2022-09-21T12:30:35;4.10;;;3.38;;
17079;SDS011;8655;57.106;-2.088;2022-09-21T12:33:09;4.80;;;3.47;;
17079;SDS011;8655;57.106;-2.088;2022-09-21T12:36:02;5.63;;;3.33;;
17079;SDS011;8655;57.106;-2.088;2022-09-21T12:38:43;4.75;;;3.47;;
17079;SDS011;8655;57.106;-2.088;2022-09-21T12:41:17;4.70;;;3.67;;
17079;SDS011;8655;57.106;-2.088;2022-09-21T12:46:25;6.25;;;3.55;;
17079;SDS011;8655;57.106;-2.088;2022-09-21T12:48:58;5.18;;;3.15;;
17079;SDS011;8655;57.106;-2.088;2022-09-21T12:51:29;5.55;;;3.65;;
17079;SDS011;8655;57.106;-2.088;2022-09-21T12:54:00;5.25;;;3.58;;
17079;SDS011;8655;57.106;-2.088;2022-09-21T13:01:59;4.97;;;3.28;;
17079;SDS011;8655;57.106;-2.088;2022-09-21T13:13:20;6.10;;;3.60;;
17079;SDS011;8655;57.106;-2.088;2022-09-21T13:15:49;4.40;;;3.45;;
17079;SDS011;8655;57.106;-2.088;2022-09-21T13:21:15;5.32;;;3.33;;
17079;SDS011;8655;57.106;-2.088;2022-09-21T13:23:42;5.70;;;3.55;;
17079;SDS011;8655;57.106;-2.088;2022-09-21T13:26:18;5.18;;;3.47;;
17079;SDS011;8655;57.106;-2.088;2022-09-21T13:29:07;6.93;;;3.83;;
17079;SDS011;8655;57.106;-2.088;2022-09-21T13:34:37;4.47;;;3.60;;
17079;SDS011;8655;57.106;-2.088;2022-09-21T13:44:59;5.25;;;3.40;;
17079;SDS011;8655;57.106;-2.088;2022-09-21T13:47:48;5.22;;;3.30;;
17079;SDS011;8655;57.106;-2.088;2022-09-21T13:52:56;5.25;;;3.92;;
17079;SDS011;8655;57.106;-2.088;2022-09-21T13:55:32;6.40;;;3.88;;
17079;SDS011;8655;57.106;-2.088;2022-09-21T13:58:02;4.80;;;3.45;;
17079;SDS011;8655;57.106;-2.088;2022-09-21T14:00:38;5.00;;;3.50;;
17079;SDS011;8655;57.106;-2.088;2022-09-21T14:03:26;3.97;;;3.40;;
17079;SDS011;8655;57.106;-2.088;2022-09-21T14:06:02;4.90;;;3.28;;
17079;SDS011;8655;57.106;-2.088;2022-09-21T14:08:38;4.45;;;3.45;;
17079;SDS011;8655;57.106;-2.088;2022-09-21T14:11:14;5.75;;;3.55;;
17079;SDS011;8655;57.106;-2.088;2022-09-21T14:13:45;5.35;;;3.35;;
17079;SDS011;8655;57.106;-2.088;2022-09-21T14:19:01;5.82;;;3.60;;
17079;SDS011;8655;57.106;-2.088;2022-09-21T14:30:18;5.07;;;3.35;;
17079;SDS011;8655;57.106;-2.088;2022-09-21T14:35:24;5.63;;;3.60;;
17079;SDS011;8655;57.106;-2.088;2022-09-21T14:37:56;5.15;;;3.70;;
17079;SDS011;8655;57.106;-2.088;2022-09-21T14:40:25;6.05;;;3.97;;
17079;SDS011;8655;57.106;-2.088;2022-09-21T14:43:00;4.88;;;3.63;;
17079;SDS011;8655;57.106;-2.088;2022-09-21T14:45:42;4.63;;;3.38;;
17079;SDS011;8655;57.106;-2.088;2022-09-21T14:48:29;5.90;;;3.70;;
17079;SDS011;8655;57.106;-2.088;2022-09-21T14:51:21;4.07;;;3.53;;
17079;SDS011;8655;57.106;-2.088;2022-09-21T14:56:41;4.43;;;3.55;;
17079;SDS011;8655;57.106;-2.088;2022-09-21T15:02:16;5.35;;;3.60;;
17079;SDS011;8655;57.106;-2.088;2022-09-21T15:10:52;5.00;;;3.30;;
17079;SDS011;8655;57.106;-2.088;2022-09-21T15:19:21;4.05;;;3.25;;
17079;SDS011;8655;57.106;-2.088;2022-09-21T15:21:51;5.72;;;3.63;;
17079;SDS011;8655;57.106;-2.088;2022-09-21T15:24:23;4.95;;;3.50;;
17079;SDS011;8655;57.106;-2.088;2022-09-21T15:29:27;4.57;;;3.05;;
17079;SDS011;8655;57.106;-2.088;2022-09-21T15:31:55;6.05;;;3.60;;
17079;SDS011;8655;57.106;-2.088;2022-09-21T15:34:22;5.80;;;3.53;;
17079;SDS011;8655;57.106;-2.088;2022-09-21T15:36:48;7.28;;;3.78;;
17079;SDS011;8655;57.106;-2.088;2022-09-21T15:39:26;4.03;;;3.13;;
17079;SDS011;8655;57.106;-2.088;2022-09-21T15:42:15;4.90;;;3.45;;
17079;SDS011;8655;57.106;-2.088;2022-09-21T15:44:42;5.22;;;3.45;;
17079;SDS011;8655;57.106;-2.088;2022-09-21T15:47:12;4.80;;;3.67;;
17079;SDS011;8655;57.106;-2.088;2022-09-21T15:49:41;4.68;;;3.72;;
17079;SDS011;8655;57.106;-2.088;2022-09-21T15:52:12;5.55;;;3.40;;
17079;SDS011;8655;57.106;-2.088;2022-09-21T16:00:25;6.88;;;3.60;;
17079;SDS011;8655;57.106;-2.088;2022-09-21T16:03:05;4.18;;;3.38;;
17079;SDS011;8655;57.106;-2.088;2022-09-21T16:08:46;4.20;;;3.35;;
17079;SDS011;8655;57.106;-2.088;2022-09-21T16:13:57;4.80;;;3.47;;
17079;SDS011;8655;57.106;-2.088;2022-09-21T16:17:18;4.50;;;3.45;;
17079;SDS011;8655;57.106;-2.088;2022-09-21T16:22:35;4.30;;;3.10;;
17079;SDS011;8655;57.106;-2.088;2022-09-21T16:25:13;6.35;;;3.55;;
17079;SDS011;8655;57.106;-2.088;2022-09-21T16:27:56;4.15;;;2.92;;
17079;SDS011;8655;57.106;-2.088;2022-09-21T16:33:33;6.03;;;3.47;;
17079;SDS011;8655;57.106;-2.088;2022-09-21T16:38:49;4.57;;;3.53;;
17079;SDS011;8655;57.106;-2.088;2022-09-21T16:41:18;5.47;;;3.47;;
17079;SDS011;8655;57.106;-2.088;2022-09-21T16:43:45;6.95;;;3.65;;
17079;SDS011;8655;57.106;-2.088;2022-09-21T16:46:11;7.70;;;3.58;;
17079;SDS011;8655;57.106;-2.088;2022-09-21T16:48:37;5.00;;;3.22;;
17079;SDS011;8655;57.106;-2.088;2022-09-21T16:51:13;6.28;;;3.80;;
17079;SDS011;8655;57.106;-2.088;2022-09-21T16:53:48;4.82;;;3.30;;
17079;SDS011;8655;57.106;-2.088;2022-09-21T16:56:14;5.28;;;3.15;;
17079;SDS011;8655;57.106;-2.088;2022-09-21T16:58:42;4.47;;;3.50;;
17079;SDS011;8655;57.106;-2.088;2022-09-21T17:01:10;4.60;;;3.13;;
17079;SDS011;8655;57.106;-2.088;2022-09-21T17:03:37;5.47;;;3.38;;
17079;SDS011;8655;57.106;-2.088;2022-09-21T17:06:24;6.63;;;3.35;;
17079;SDS011;8655;57.106;-2.088;2022-09-21T17:08:50;5.53;;;3.20;;
17079;SDS011;8655;57.106;-2.088;2022-09-21T17:11:16;5.10;;;3.17;;
17079;SDS011;8655;57.106;-2.088;2022-09-21T17:13:47;6.78;;;3.22;;
17079;SDS011;8655;57.106;-2.088;2022-09-21T17:16:13;5.00;;;2.90;;
17079;SDS011;8655;57.106;-2.088;2022-09-21T17:18:43;5.43;;;3.28;;
17079;SDS011;8655;57.106;-2.088;2022-09-21T17:21:09;5.47;;;3.50;;
17079;SDS011;8655;57.106;-2.088;2022-09-21T17:23:35;4.50;;;2.90;;
17079;SDS011;8655;57.106;-2.088;2022-09-21T17:26:02;5.40;;;3.30;;
17079;SDS011;8655;57.106;-2.088;2022-09-21T17:28:33;4.15;;;3.22;;
17079;SDS011;8655;57.106;-2.088;2022-09-21T17:30:59;5.82;;;3.38;;
17079;SDS011;8655;57.106;-2.088;2022-09-21T17:33:27;5.85;;;3.13;;
17079;SDS011;8655;57.106;-2.088;2022-09-21T17:35:53;6.32;;;3.28;;
17079;SDS011;8655;57.106;-2.088;2022-09-21T17:38:19;3.92;;;2.85;;
17079;SDS011;8655;57.106;-2.088;2022-09-21T17:40:44;5.78;;;3.47;;
17079;SDS011;8655;57.106;-2.088;2022-09-21T17:48:23;4.03;;;2.95;;
17079;SDS011;8655;57.106;-2.088;2022-09-21T17:50:48;4.63;;;3.28;;
17079;SDS011;8655;57.106;-2.088;2022-09-21T17:53:14;5.15;;;3.20;;
17079;SDS011;8655;57.106;-2.088;2022-09-21T17:56:07;4.43;;;3.13;;
17079;SDS011;8655;57.106;-2.088;2022-09-21T18:01:28;6.25;;;3.00;;
17079;SDS011;8655;57.106;-2.088;2022-09-21T18:04:00;4.30;;;2.97;;
17079;SDS011;8655;57.106;-2.088;2022-09-21T18:06:26;3.95;;;2.90;;
17079;SDS011;8655;57.106;-2.088;2022-09-21T18:08:53;4.10;;;2.95;;
17079;SDS011;8655;57.106;-2.088;2022-09-21T18:20:02;5.25;;;2.97;;
17079;SDS011;8655;57.106;-2.088;2022-09-21T18:22:45;4.30;;;2.90;;
17079;SDS011;8655;57.106;-2.088;2022-09-21T18:25:28;3.05;;;2.75;;
17079;SDS011;8655;57.106;-2.088;2022-09-21T18:28:11;3.05;;;2.72;;
17079;SDS011;8655;57.106;-2.088;2022-09-21T18:30:49;3.97;;;2.83;;
17079;SDS011;8655;57.106;-2.088;2022-09-21T18:34:14;3.67;;;2.83;;
17079;SDS011;8655;57.106;-2.088;2022-09-21T18:36:37;3.70;;;2.50;;
17079;SDS011;8655;57.106;-2.088;2022-09-21T18:39:21;5.80;;;2.83;;
17079;SDS011;8655;57.106;-2.088;2022-09-21T18:44:42;3.03;;;2.72;;
17079;SDS011;8655;57.106;-2.088;2022-09-21T18:47:26;3.15;;;2.85;;
17079;SDS011;8655;57.106;-2.088;2022-09-21T18:55:27;3.65;;;2.70;;
17079;SDS011;8655;57.106;-2.088;2022-09-21T18:57:57;3.08;;;2.50;;
17079;SDS011;8655;57.106;-2.088;2022-09-21T19:00:24;3.08;;;2.50;;
17079;SDS011;8655;57.106;-2.088;2022-09-21T19:02:59;4.35;;;2.85;;
17079;SDS011;8655;57.106;-2.088;2022-09-21T19:05:31;4.00;;;2.80;;
17079;SDS011;8655;57.106;-2.088;2022-09-21T19:08:17;4.13;;;2.85;;
17079;SDS011;8655;57.106;-2.088;2022-09-21T19:10:52;2.55;;;2.30;;
17079;SDS011;8655;57.106;-2.088;2022-09-21T19:14:08;3.40;;;2.72;;
17079;SDS011;8655;57.106;-2.088;2022-09-21T19:16:23;3.63;;;2.58;;
17079;SDS011;8655;57.106;-2.088;2022-09-21T19:21:50;3.22;;;2.65;;
17079;SDS011;8655;57.106;-2.088;2022-09-21T19:24:30;3.63;;;2.63;;
17079;SDS011;8655;57.106;-2.088;2022-09-21T19:32:34;3.40;;;2.78;;